sensor_id;sensor_type;location;lat;lon;timestamp;P1;durP1;ratioP1;P2;durP2;ratioP2
18316;SDS011;9284;52.298;21.164;2023-05-07T00:01:47;7.33;;;5.10;;
18316;SDS011;9284;52.298;21.164;2023-05-07T00:04:16;10.40;;;4.73;;
18316;SDS011;9284;52.298;21.164;2023-05-07T00:06:44;10.17;;;4.90;;
18316;SDS011;9284;52.298;21.164;2023-05-07T00:09:12;7.70;;;4.73;;
18316;SDS011;9284;52.298;21.164;2023-05-07T00:11:41;8.53;;;4.77;;
18316;SDS011;9284;52.298;21.164;2023-05-07T00:14:09;9.85;;;4.95;;
18316;SDS011;9284;52.298;21.164;2023-05-07T00:16:39;9.43;;;4.67;;
18316;SDS011;9284;52.298;21.164;2023-05-07T00:19:07;7.50;;;5.13;;
18316;SDS011;9284;52.298;21.164;2023-05-07T00:21:35;8.53;;;5.20;;
18316;SDS011;9284;52.298;21.164;2023-05-07T00:24:04;9.63;;;5.10;;
18316;SDS011;9284;52.298;21.164;2023-05-07T00:26:32;7.57;;;4.40;;
18316;SDS011;9284;52.298;21.164;2023-05-07T00:29:00;7.57;;;4.67;;
18316;SDS011;9284;52.298;21.164;2023-05-07T00:31:29;7.93;;;4.50;;
18316;SDS011;9284;52.298;21.164;2023-05-07T00:33:58;8.53;;;4.50;;
18316;SDS011;9284;52.298;21.164;2023-05-07T00:36:27;6.83;;;4.50;;
18316;SDS011;9284;52.298;21.164;2023-05-07T00:38:56;8.73;;;5.00;;
18316;SDS011;9284;52.298;21.164;2023-05-07T00:41:26;9.17;;;5.47;;
18316;SDS011;9284;52.298;21.164;2023-05-07T00:43:54;12.17;;;5.60;;
18316;SDS011;9284;52.298;21.164;2023-05-07T00:46:23;10.83;;;4.87;;
18316;SDS011;9284;52.298;21.164;2023-05-07T00:48:52;8.43;;;5.23;;
18316;SDS011;9284;52.298;21.164;2023-05-07T00:51:23;11.10;;;5.23;;
18316;SDS011;9284;52.298;21.164;2023-05-07T00:53:53;9.93;;;5.25;;
18316;SDS011;9284;52.298;21.164;2023-05-07T00:56:21;9.20;;;4.43;;
18316;SDS011;9284;52.298;21.164;2023-05-07T00:58:50;9.20;;;4.83;;
18316;SDS011;9284;52.298;21.164;2023-05-07T01:01:19;7.87;;;4.80;;
18316;SDS011;9284;52.298;21.164;2023-05-07T01:03:47;8.27;;;4.53;;
18316;SDS011;9284;52.298;21.164;2023-05-07T01:06:16;7.47;;;5.10;;
18316;SDS011;9284;52.298;21.164;2023-05-07T01:08:47;9.47;;;4.73;;
18316;SDS011;9284;52.298;21.164;2023-05-07T01:11:16;8.50;;;5.07;;
18316;SDS011;9284;52.298;21.164;2023-05-07T01:13:46;10.97;;;5.47;;
18316;SDS011;9284;52.298;21.164;2023-05-07T01:16:15;8.00;;;5.37;;
18316;SDS011;9284;52.298;21.164;2023-05-07T01:18:43;9.07;;;5.20;;
18316;SDS011;9284;52.298;21.164;2023-05-07T01:21:14;10.07;;;4.43;;
18316;SDS011;9284;52.298;21.164;2023-05-07T01:23:46;8.13;;;4.60;;
18316;SDS011;9284;52.298;21.164;2023-05-07T01:26:15;11.17;;;5.20;;
18316;SDS011;9284;52.298;21.164;2023-05-07T01:28:46;17.00;;;5.17;;
18316;SDS011;9284;52.298;21.164;2023-05-07T01:31:14;7.47;;;4.90;;
18316;SDS011;9284;52.298;21.164;2023-05-07T01:33:44;8.87;;;4.90;;
18316;SDS011;9284;52.298;21.164;2023-05-07T01:36:16;8.27;;;4.93;;
18316;SDS011;9284;52.298;21.164;2023-05-07T01:38:47;7.80;;;4.90;;
18316;SDS011;9284;52.298;21.164;2023-05-07T01:41:16;6.67;;;4.40;;
18316;SDS011;9284;52.298;21.164;2023-05-07T01:43:45;8.40;;;5.00;;
18316;SDS011;9284;52.298;21.164;2023-05-07T01:46:14;7.10;;;4.50;;
18316;SDS011;9284;52.298;21.164;2023-05-07T01:48:44;10.30;;;4.43;;
18316;SDS011;9284;52.298;21.164;2023-05-07T01:51:13;8.90;;;4.77;;
18316;SDS011;9284;52.298;21.164;2023-05-07T01:53:41;6.63;;;4.03;;
18316;SDS011;9284;52.298;21.164;2023-05-07T01:56:13;7.53;;;4.13;;
18316;SDS011;9284;52.298;21.164;2023-05-07T01:58:45;6.47;;;4.53;;
18316;SDS011;9284;52.298;21.164;2023-05-07T02:01:15;7.40;;;3.93;;
18316;SDS011;9284;52.298;21.164;2023-05-07T02:03:43;6.27;;;3.90;;
18316;SDS011;9284;52.298;21.164;2023-05-07T02:06:19;7.20;;;4.47;;
18316;SDS011;9284;52.298;21.164;2023-05-07T02:08:51;5.77;;;3.93;;
18316;SDS011;9284;52.298;21.164;2023-05-07T02:11:20;6.20;;;4.17;;
18316;SDS011;9284;52.298;21.164;2023-05-07T02:13:51;8.97;;;4.67;;
18316;SDS011;9284;52.298;21.164;2023-05-07T02:16:20;8.03;;;4.30;;
18316;SDS011;9284;52.298;21.164;2023-05-07T02:18:54;8.53;;;4.43;;
18316;SDS011;9284;52.298;21.164;2023-05-07T02:21:23;7.07;;;4.07;;
18316;SDS011;9284;52.298;21.164;2023-05-07T02:23:51;8.47;;;3.90;;
18316;SDS011;9284;52.298;21.164;2023-05-07T02:26:21;6.70;;;3.97;;
18316;SDS011;9284;52.298;21.164;2023-05-07T02:28:49;8.03;;;3.73;;
18316;SDS011;9284;52.298;21.164;2023-05-07T02:31:18;7.27;;;4.03;;
18316;SDS011;9284;52.298;21.164;2023-05-07T02:33:47;6.00;;;4.23;;
18316;SDS011;9284;52.298;21.164;2023-05-07T02:36:15;8.13;;;4.67;;
18316;SDS011;9284;52.298;21.164;2023-05-07T02:38:54;6.73;;;4.20;;
18316;SDS011;9284;52.298;21.164;2023-05-07T02:41:24;7.17;;;4.10;;
18316;SDS011;9284;52.298;21.164;2023-05-07T02:43:54;7.60;;;4.13;;
18316;SDS011;9284;52.298;21.164;2023-05-07T02:46:23;7.53;;;4.37;;
18316;SDS011;9284;52.298;21.164;2023-05-07T02:48:58;7.13;;;4.03;;
18316;SDS011;9284;52.298;21.164;2023-05-07T02:51:27;9.67;;;4.10;;
18316;SDS011;9284;52.298;21.164;2023-05-07T02:54:02;6.67;;;3.97;;
18316;SDS011;9284;52.298;21.164;2023-05-07T02:56:36;5.77;;;3.53;;
18316;SDS011;9284;52.298;21.164;2023-05-07T02:59:04;7.03;;;4.00;;
18316;SDS011;9284;52.298;21.164;2023-05-07T03:01:37;6.67;;;4.40;;
18316;SDS011;9284;52.298;21.164;2023-05-07T03:04:07;6.77;;;3.70;;
18316;SDS011;9284;52.298;21.164;2023-05-07T03:06:36;8.70;;;3.90;;
18316;SDS011;9284;52.298;21.164;2023-05-07T03:09:05;7.90;;;4.33;;
18316;SDS011;9284;52.298;21.164;2023-05-07T03:11:33;6.30;;;4.03;;
18316;SDS011;9284;52.298;21.164;2023-05-07T03:14:03;6.90;;;4.37;;
18316;SDS011;9284;52.298;21.164;2023-05-07T03:16:32;7.30;;;4.13;;
18316;SDS011;9284;52.298;21.164;2023-05-07T03:19:06;8.63;;;3.90;;
18316;SDS011;9284;52.298;21.164;2023-05-07T03:21:36;10.33;;;4.50;;
18316;SDS011;9284;52.298;21.164;2023-05-07T03:24:08;5.47;;;3.70;;
18316;SDS011;9284;52.298;21.164;2023-05-07T03:26:36;6.30;;;3.93;;
18316;SDS011;9284;52.298;21.164;2023-05-07T03:29:06;7.73;;;4.03;;
18316;SDS011;9284;52.298;21.164;2023-05-07T03:31:35;7.27;;;3.70;;
18316;SDS011;9284;52.298;21.164;2023-05-07T03:34:03;6.20;;;3.73;;
18316;SDS011;9284;52.298;21.164;2023-05-07T03:36:32;6.90;;;3.93;;
18316;SDS011;9284;52.298;21.164;2023-05-07T03:39:05;5.93;;;4.10;;
18316;SDS011;9284;52.298;21.164;2023-05-07T03:41:38;5.23;;;3.30;;
18316;SDS011;9284;52.298;21.164;2023-05-07T03:44:08;4.30;;;3.40;;
18316;SDS011;9284;52.298;21.164;2023-05-07T03:46:37;5.20;;;3.60;;
18316;SDS011;9284;52.298;21.164;2023-05-07T03:49:08;7.80;;;3.77;;
18316;SDS011;9284;52.298;21.164;2023-05-07T03:51:39;7.77;;;3.87;;
18316;SDS011;9284;52.298;21.164;2023-05-07T03:54:07;6.53;;;3.67;;
18316;SDS011;9284;52.298;21.164;2023-05-07T03:56:41;9.77;;;3.87;;
18316;SDS011;9284;52.298;21.164;2023-05-07T03:59:11;5.07;;;3.70;;
18316;SDS011;9284;52.298;21.164;2023-05-07T04:01:43;6.13;;;3.90;;
18316;SDS011;9284;52.298;21.164;2023-05-07T04:04:16;7.37;;;3.50;;
18316;SDS011;9284;52.298;21.164;2023-05-07T04:06:44;7.43;;;4.07;;
18316;SDS011;9284;52.298;21.164;2023-05-07T04:09:13;6.07;;;4.00;;
18316;SDS011;9284;52.298;21.164;2023-05-07T04:11:43;8.10;;;4.00;;
18316;SDS011;9284;52.298;21.164;2023-05-07T04:14:13;6.40;;;4.07;;
18316;SDS011;9284;52.298;21.164;2023-05-07T04:16:42;5.33;;;3.50;;
18316;SDS011;9284;52.298;21.164;2023-05-07T04:19:10;5.50;;;4.03;;
18316;SDS011;9284;52.298;21.164;2023-05-07T04:21:39;5.77;;;3.60;;
18316;SDS011;9284;52.298;21.164;2023-05-07T04:24:14;6.00;;;3.57;;
18316;SDS011;9284;52.298;21.164;2023-05-07T04:26:44;5.93;;;3.70;;
18316;SDS011;9284;52.298;21.164;2023-05-07T04:29:14;5.50;;;3.23;;
18316;SDS011;9284;52.298;21.164;2023-05-07T04:31:43;5.13;;;3.60;;
18316;SDS011;9284;52.298;21.164;2023-05-07T04:34:12;5.80;;;3.78;;
18316;SDS011;9284;52.298;21.164;2023-05-07T04:36:41;7.25;;;4.05;;
18316;SDS011;9284;52.298;21.164;2023-05-07T04:39:14;8.27;;;3.38;;
18316;SDS011;9284;52.298;21.164;2023-05-07T04:41:45;8.00;;;3.50;;
18316;SDS011;9284;52.298;21.164;2023-05-07T04:44:16;5.80;;;3.55;;
18316;SDS011;9284;52.298;21.164;2023-05-07T04:46:49;8.00;;;3.85;;
18316;SDS011;9284;52.298;21.164;2023-05-07T04:49:19;8.13;;;3.50;;
18316;SDS011;9284;52.298;21.164;2023-05-07T04:51:48;5.07;;;3.10;;
18316;SDS011;9284;52.298;21.164;2023-05-07T04:54:20;8.37;;;4.13;;
18316;SDS011;9284;52.298;21.164;2023-05-07T04:56:49;10.10;;;3.55;;
18316;SDS011;9284;52.298;21.164;2023-05-07T04:59:18;5.03;;;3.35;;
18316;SDS011;9284;52.298;21.164;2023-05-07T05:01:49;5.20;;;3.47;;
18316;SDS011;9284;52.298;21.164;2023-05-07T05:04:18;5.63;;;3.38;;
18316;SDS011;9284;52.298;21.164;2023-05-07T05:06:46;4.70;;;3.67;;
18316;SDS011;9284;52.298;21.164;2023-05-07T05:09:15;5.10;;;3.53;;
18316;SDS011;9284;52.298;21.164;2023-05-07T05:11:44;5.20;;;3.47;;
18316;SDS011;9284;52.298;21.164;2023-05-07T05:14:13;5.25;;;3.80;;
18316;SDS011;9284;52.298;21.164;2023-05-07T05:16:46;5.13;;;3.90;;
18316;SDS011;9284;52.298;21.164;2023-05-07T05:19:16;5.72;;;3.70;;
18316;SDS011;9284;52.298;21.164;2023-05-07T05:21:51;4.38;;;3.28;;
18316;SDS011;9284;52.298;21.164;2023-05-07T05:24:22;7.35;;;3.95;;
18316;SDS011;9284;52.298;21.164;2023-05-07T05:26:57;5.13;;;3.30;;
18316;SDS011;9284;52.298;21.164;2023-05-07T05:29:29;4.78;;;3.60;;
18316;SDS011;9284;52.298;21.164;2023-05-07T05:32:02;5.22;;;3.70;;
18316;SDS011;9284;52.298;21.164;2023-05-07T05:34:34;6.45;;;3.22;;
18316;SDS011;9284;52.298;21.164;2023-05-07T05:37:12;5.05;;;3.15;;
18316;SDS011;9284;52.298;21.164;2023-05-07T05:39:41;4.18;;;2.90;;
18316;SDS011;9284;52.298;21.164;2023-05-07T05:42:10;3.85;;;3.05;;
18316;SDS011;9284;52.298;21.164;2023-05-07T05:44:39;3.95;;;3.03;;
18316;SDS011;9284;52.298;21.164;2023-05-07T05:47:11;4.05;;;2.80;;
18316;SDS011;9284;52.298;21.164;2023-05-07T05:49:40;4.57;;;2.88;;
18316;SDS011;9284;52.298;21.164;2023-05-07T05:52:12;7.53;;;3.20;;
18316;SDS011;9284;52.298;21.164;2023-05-07T05:54:41;4.32;;;2.95;;
18316;SDS011;9284;52.298;21.164;2023-05-07T05:57:13;3.38;;;2.65;;
18316;SDS011;9284;52.298;21.164;2023-05-07T05:59:44;5.45;;;3.10;;
18316;SDS011;9284;52.298;21.164;2023-05-07T06:02:15;3.80;;;2.78;;
18316;SDS011;9284;52.298;21.164;2023-05-07T06:04:46;4.78;;;2.88;;
18316;SDS011;9284;52.298;21.164;2023-05-07T06:07:19;4.07;;;2.60;;
18316;SDS011;9284;52.298;21.164;2023-05-07T06:09:49;5.18;;;2.85;;
18316;SDS011;9284;52.298;21.164;2023-05-07T06:12:18;3.78;;;2.90;;
18316;SDS011;9284;52.298;21.164;2023-05-07T06:14:47;4.15;;;2.85;;
18316;SDS011;9284;52.298;21.164;2023-05-07T06:17:18;5.30;;;2.75;;
18316;SDS011;9284;52.298;21.164;2023-05-07T06:19:49;8.25;;;3.45;;
18316;SDS011;9284;52.298;21.164;2023-05-07T06:22:19;7.18;;;3.00;;
18316;SDS011;9284;52.298;21.164;2023-05-07T06:24:48;4.60;;;2.90;;
18316;SDS011;9284;52.298;21.164;2023-05-07T06:27:16;3.70;;;2.70;;
18316;SDS011;9284;52.298;21.164;2023-05-07T06:29:47;4.20;;;2.60;;
18316;SDS011;9284;52.298;21.164;2023-05-07T06:32:18;5.25;;;2.90;;
18316;SDS011;9284;52.298;21.164;2023-05-07T06:34:51;3.65;;;2.55;;
18316;SDS011;9284;52.298;21.164;2023-05-07T06:37:20;5.43;;;3.10;;
18316;SDS011;9284;52.298;21.164;2023-05-07T06:39:58;3.65;;;2.60;;
18316;SDS011;9284;52.298;21.164;2023-05-07T06:42:28;6.70;;;2.72;;
18316;SDS011;9284;52.298;21.164;2023-05-07T06:45:04;4.88;;;3.35;;
18316;SDS011;9284;52.298;21.164;2023-05-07T06:47:35;4.40;;;2.83;;
18316;SDS011;9284;52.298;21.164;2023-05-07T06:50:04;4.30;;;3.33;;
18316;SDS011;9284;52.298;21.164;2023-05-07T06:52:33;5.80;;;3.50;;
18316;SDS011;9284;52.298;21.164;2023-05-07T06:55:04;5.38;;;3.20;;
18316;SDS011;9284;52.298;21.164;2023-05-07T06:57:33;4.30;;;2.90;;
18316;SDS011;9284;52.298;21.164;2023-05-07T07:00:02;3.33;;;2.70;;
18316;SDS011;9284;52.298;21.164;2023-05-07T07:02:41;3.47;;;2.63;;
18316;SDS011;9284;52.298;21.164;2023-05-07T07:05:12;4.13;;;3.00;;
18316;SDS011;9284;52.298;21.164;2023-05-07T07:07:40;3.17;;;2.65;;
18316;SDS011;9284;52.298;21.164;2023-05-07T07:10:09;5.43;;;2.90;;
18316;SDS011;9284;52.298;21.164;2023-05-07T07:12:38;3.88;;;2.63;;
18316;SDS011;9284;52.298;21.164;2023-05-07T07:15:07;4.93;;;2.45;;
18316;SDS011;9284;52.298;21.164;2023-05-07T07:17:36;3.85;;;2.70;;
18316;SDS011;9284;52.298;21.164;2023-05-07T07:20:07;3.55;;;2.47;;
18316;SDS011;9284;52.298;21.164;2023-05-07T07:22:38;3.97;;;2.60;;
18316;SDS011;9284;52.298;21.164;2023-05-07T07:25:07;3.70;;;2.72;;
18316;SDS011;9284;52.298;21.164;2023-05-07T07:27:37;2.67;;;2.33;;
18316;SDS011;9284;52.298;21.164;2023-05-07T07:30:07;2.85;;;2.40;;
18316;SDS011;9284;52.298;21.164;2023-05-07T07:32:39;4.00;;;2.42;;
18316;SDS011;9284;52.298;21.164;2023-05-07T07:35:09;4.63;;;2.40;;
18316;SDS011;9284;52.298;21.164;2023-05-07T07:37:39;4.57;;;2.22;;
18316;SDS011;9284;52.298;21.164;2023-05-07T07:40:08;4.55;;;2.33;;
18316;SDS011;9284;52.298;21.164;2023-05-07T07:42:38;5.10;;;2.45;;
18316;SDS011;9284;52.298;21.164;2023-05-07T07:45:07;3.53;;;2.70;;
18316;SDS011;9284;52.298;21.164;2023-05-07T07:47:43;2.83;;;2.22;;
18316;SDS011;9284;52.298;21.164;2023-05-07T07:50:13;3.55;;;2.30;;
18316;SDS011;9284;52.298;21.164;2023-05-07T07:53:01;4.57;;;2.83;;
18316;SDS011;9284;52.298;21.164;2023-05-07T07:55:30;5.97;;;2.40;;
18316;SDS011;9284;52.298;21.164;2023-05-07T07:57:59;2.42;;;2.10;;
18316;SDS011;9284;52.298;21.164;2023-05-07T08:00:28;4.82;;;2.40;;
18316;SDS011;9284;52.298;21.164;2023-05-07T08:02:56;5.20;;;2.28;;
18316;SDS011;9284;52.298;21.164;2023-05-07T08:05:31;4.20;;;2.22;;
18316;SDS011;9284;52.298;21.164;2023-05-07T08:07:59;3.60;;;2.22;;
18316;SDS011;9284;52.298;21.164;2023-05-07T08:10:32;5.22;;;2.42;;
18316;SDS011;9284;52.298;21.164;2023-05-07T08:13:07;4.45;;;2.25;;
18316;SDS011;9284;52.298;21.164;2023-05-07T08:15:38;2.05;;;1.55;;
18316;SDS011;9284;52.298;21.164;2023-05-07T08:18:07;2.13;;;1.83;;
18316;SDS011;9284;52.298;21.164;2023-05-07T08:20:38;2.92;;;1.92;;
18316;SDS011;9284;52.298;21.164;2023-05-07T08:23:13;3.22;;;2.05;;
18316;SDS011;9284;52.298;21.164;2023-05-07T08:25:43;3.53;;;2.22;;
18316;SDS011;9284;52.298;21.164;2023-05-07T08:28:12;2.58;;;1.90;;
18316;SDS011;9284;52.298;21.164;2023-05-07T08:30:41;5.03;;;2.05;;
18316;SDS011;9284;52.298;21.164;2023-05-07T08:33:10;3.08;;;2.13;;
18316;SDS011;9284;52.298;21.164;2023-05-07T08:35:39;2.83;;;2.15;;
18316;SDS011;9284;52.298;21.164;2023-05-07T08:38:10;2.80;;;2.10;;
18316;SDS011;9284;52.298;21.164;2023-05-07T08:40:40;1.77;;;1.67;;
18316;SDS011;9284;52.298;21.164;2023-05-07T08:43:16;2.03;;;1.60;;
18316;SDS011;9284;52.298;21.164;2023-05-07T08:45:46;2.63;;;1.70;;
18316;SDS011;9284;52.298;21.164;2023-05-07T08:48:25;2.53;;;1.95;;
18316;SDS011;9284;52.298;21.164;2023-05-07T08:51:06;2.00;;;1.80;;
18316;SDS011;9284;52.298;21.164;2023-05-07T08:53:34;2.75;;;1.75;;
18316;SDS011;9284;52.298;21.164;2023-05-07T08:56:07;5.68;;;2.05;;
18316;SDS011;9284;52.298;21.164;2023-05-07T08:58:36;1.90;;;1.70;;
18316;SDS011;9284;52.298;21.164;2023-05-07T09:01:07;2.88;;;1.50;;
18316;SDS011;9284;52.298;21.164;2023-05-07T09:03:37;1.65;;;1.48;;
18316;SDS011;9284;52.298;21.164;2023-05-07T09:06:08;2.83;;;1.83;;
18316;SDS011;9284;52.298;21.164;2023-05-07T09:08:36;2.50;;;1.70;;
18316;SDS011;9284;52.298;21.164;2023-05-07T09:11:06;3.80;;;1.80;;
18316;SDS011;9284;52.298;21.164;2023-05-07T09:13:36;2.63;;;1.83;;
18316;SDS011;9284;52.298;21.164;2023-05-07T09:16:11;1.73;;;1.42;;
18316;SDS011;9284;52.298;21.164;2023-05-07T09:18:43;1.60;;;1.50;;
18316;SDS011;9284;52.298;21.164;2023-05-07T09:21:19;2.70;;;1.60;;
18316;SDS011;9284;52.298;21.164;2023-05-07T09:23:51;1.98;;;1.63;;
18316;SDS011;9284;52.298;21.164;2023-05-07T09:26:27;5.05;;;1.70;;
18316;SDS011;9284;52.298;21.164;2023-05-07T09:28:55;3.35;;;1.90;;
18316;SDS011;9284;52.298;21.164;2023-05-07T09:31:25;3.88;;;1.80;;
18316;SDS011;9284;52.298;21.164;2023-05-07T09:33:57;3.65;;;1.70;;
18316;SDS011;9284;52.298;21.164;2023-05-07T09:36:29;2.00;;;1.23;;
18316;SDS011;9284;52.298;21.164;2023-05-07T09:39:03;2.33;;;1.60;;
18316;SDS011;9284;52.298;21.164;2023-05-07T09:41:31;2.15;;;1.65;;
18316;SDS011;9284;52.298;21.164;2023-05-07T09:44:08;2.33;;;1.33;;
18316;SDS011;9284;52.298;21.164;2023-05-07T09:46:42;2.78;;;1.58;;
18316;SDS011;9284;52.298;21.164;2023-05-07T09:49:22;2.75;;;1.38;;
18316;SDS011;9284;52.298;21.164;2023-05-07T09:52:00;2.53;;;1.30;;
18316;SDS011;9284;52.298;21.164;2023-05-07T09:54:33;1.88;;;1.67;;
18316;SDS011;9284;52.298;21.164;2023-05-07T09:57:02;1.60;;;1.50;;
18316;SDS011;9284;52.298;21.164;2023-05-07T09:59:31;3.08;;;1.30;;
18316;SDS011;9284;52.298;21.164;2023-05-07T10:02:04;2.38;;;1.35;;
18316;SDS011;9284;52.298;21.164;2023-05-07T10:04:39;1.83;;;1.42;;
18316;SDS011;9284;52.298;21.164;2023-05-07T10:07:10;1.60;;;1.30;;
18316;SDS011;9284;52.298;21.164;2023-05-07T10:09:39;1.42;;;1.33;;
18316;SDS011;9284;52.298;21.164;2023-05-07T10:12:18;2.22;;;1.45;;
18316;SDS011;9284;52.298;21.164;2023-05-07T10:14:56;2.67;;;1.50;;
18316;SDS011;9284;52.298;21.164;2023-05-07T10:17:26;4.95;;;1.70;;
18316;SDS011;9284;52.298;21.164;2023-05-07T10:19:55;4.55;;;1.80;;
18316;SDS011;9284;52.298;21.164;2023-05-07T10:22:26;3.75;;;1.67;;
18316;SDS011;9284;52.298;21.164;2023-05-07T10:24:56;2.45;;;1.45;;
18316;SDS011;9284;52.298;21.164;2023-05-07T10:27:37;2.95;;;1.52;;
18316;SDS011;9284;52.298;21.164;2023-05-07T10:30:15;2.92;;;1.30;;
18316;SDS011;9284;52.298;21.164;2023-05-07T10:33:08;1.35;;;1.13;;
18316;SDS011;9284;52.298;21.164;2023-05-07T10:35:42;1.83;;;1.50;;
18316;SDS011;9284;52.298;21.164;2023-05-07T10:38:16;4.00;;;1.85;;
18316;SDS011;9284;52.298;21.164;2023-05-07T10:40:47;2.05;;;1.30;;
18316;SDS011;9284;52.298;21.164;2023-05-07T10:43:16;1.95;;;1.60;;
18316;SDS011;9284;52.298;21.164;2023-05-07T10:46:16;1.50;;;1.40;;
18316;SDS011;9284;52.298;21.164;2023-05-07T10:49:12;1.50;;;1.20;;
18316;SDS011;9284;52.298;21.164;2023-05-07T10:52:11;2.65;;;1.05;;
18316;SDS011;9284;52.298;21.164;2023-05-07T10:55:19;5.47;;;1.52;;
18316;SDS011;9284;52.298;21.164;2023-05-07T10:58:10;1.63;;;1.38;;
18316;SDS011;9284;52.298;21.164;2023-05-07T11:01:03;2.08;;;1.48;;
18316;SDS011;9284;52.298;21.164;2023-05-07T11:04:11;2.00;;;1.35;;
18316;SDS011;9284;52.298;21.164;2023-05-07T11:10:07;3.53;;;1.45;;
18316;SDS011;9284;52.298;21.164;2023-05-07T11:12:57;2.33;;;1.27;;
18316;SDS011;9284;52.298;21.164;2023-05-07T11:15:40;3.45;;;1.65;;
18316;SDS011;9284;52.298;21.164;2023-05-07T11:18:45;2.05;;;1.20;;
18316;SDS011;9284;52.298;21.164;2023-05-07T11:21:31;3.38;;;2.10;;
18316;SDS011;9284;52.298;21.164;2023-05-07T11:24:27;3.75;;;1.60;;
18316;SDS011;9284;52.298;21.164;2023-05-07T11:27:03;2.58;;;1.20;;
18316;SDS011;9284;52.298;21.164;2023-05-07T11:29:32;1.50;;;1.23;;
18316;SDS011;9284;52.298;21.164;2023-05-07T11:32:08;2.67;;;1.40;;
18316;SDS011;9284;52.298;21.164;2023-05-07T11:34:43;4.88;;;2.03;;
18316;SDS011;9284;52.298;21.164;2023-05-07T11:37:16;4.07;;;1.50;;
18316;SDS011;9284;52.298;21.164;2023-05-07T11:40:01;3.15;;;1.90;;
18316;SDS011;9284;52.298;21.164;2023-05-07T11:42:34;5.32;;;2.47;;
18316;SDS011;9284;52.298;21.164;2023-05-07T11:45:04;3.28;;;2.35;;
18316;SDS011;9284;52.298;21.164;2023-05-07T11:47:34;6.30;;;3.38;;
18316;SDS011;9284;52.298;21.164;2023-05-07T11:50:03;4.05;;;1.90;;
18316;SDS011;9284;52.298;21.164;2023-05-07T11:52:34;1.63;;;1.30;;
18316;SDS011;9284;52.298;21.164;2023-05-07T11:55:05;1.83;;;1.38;;
18316;SDS011;9284;52.298;21.164;2023-05-07T11:57:36;4.10;;;1.50;;
18316;SDS011;9284;52.298;21.164;2023-05-07T12:00:05;3.05;;;1.60;;
18316;SDS011;9284;52.298;21.164;2023-05-07T12:02:42;5.22;;;1.67;;
18316;SDS011;9284;52.298;21.164;2023-05-07T12:05:11;1.52;;;1.30;;
18316;SDS011;9284;52.298;21.164;2023-05-07T12:07:40;3.75;;;1.10;;
18316;SDS011;9284;52.298;21.164;2023-05-07T12:10:11;2.85;;;1.27;;
18316;SDS011;9284;52.298;21.164;2023-05-07T12:12:47;1.98;;;1.33;;
18316;SDS011;9284;52.298;21.164;2023-05-07T12:15:15;3.33;;;1.42;;
18316;SDS011;9284;52.298;21.164;2023-05-07T12:17:44;1.88;;;1.40;;
18316;SDS011;9284;52.298;21.164;2023-05-07T12:20:15;2.63;;;1.70;;
18316;SDS011;9284;52.298;21.164;2023-05-07T12:22:47;2.42;;;1.48;;
18316;SDS011;9284;52.298;21.164;2023-05-07T12:25:20;1.50;;;1.33;;
18316;SDS011;9284;52.298;21.164;2023-05-07T12:27:57;3.10;;;1.30;;
18316;SDS011;9284;52.298;21.164;2023-05-07T12:30:40;3.47;;;1.48;;
18316;SDS011;9284;52.298;21.164;2023-05-07T12:33:10;1.92;;;1.40;;
18316;SDS011;9284;52.298;21.164;2023-05-07T12:35:40;2.58;;;1.30;;
18316;SDS011;9284;52.298;21.164;2023-05-07T12:38:13;2.80;;;1.50;;
18316;SDS011;9284;52.298;21.164;2023-05-07T12:40:44;2.60;;;1.50;;
18316;SDS011;9284;52.298;21.164;2023-05-07T12:43:18;3.08;;;1.58;;
18316;SDS011;9284;52.298;21.164;2023-05-07T12:45:48;3.13;;;2.28;;
18316;SDS011;9284;52.298;21.164;2023-05-07T12:48:19;3.70;;;1.30;;
18316;SDS011;9284;52.298;21.164;2023-05-07T12:50:51;2.17;;;1.35;;
18316;SDS011;9284;52.298;21.164;2023-05-07T12:53:25;6.88;;;1.60;;
18316;SDS011;9284;52.298;21.164;2023-05-07T12:55:55;2.92;;;1.90;;
18316;SDS011;9284;52.298;21.164;2023-05-07T12:58:26;4.90;;;3.63;;
18316;SDS011;9284;52.298;21.164;2023-05-07T13:00:58;2.35;;;1.80;;
18316;SDS011;9284;52.298;21.164;2023-05-07T13:03:28;1.63;;;1.30;;
18316;SDS011;9284;52.298;21.164;2023-05-07T13:05:59;2.88;;;1.45;;
18316;SDS011;9284;52.298;21.164;2023-05-07T13:08:30;2.92;;;1.92;;
18316;SDS011;9284;52.298;21.164;2023-05-07T13:11:02;3.45;;;1.77;;
18316;SDS011;9284;52.298;21.164;2023-05-07T13:13:35;2.78;;;1.58;;
18316;SDS011;9284;52.298;21.164;2023-05-07T13:16:07;6.80;;;3.72;;
18316;SDS011;9284;52.298;21.164;2023-05-07T13:18:43;1.80;;;1.25;;
18316;SDS011;9284;52.298;21.164;2023-05-07T13:21:12;1.92;;;1.38;;
18316;SDS011;9284;52.298;21.164;2023-05-07T13:23:41;1.55;;;1.42;;
18316;SDS011;9284;52.298;21.164;2023-05-07T13:26:09;3.35;;;2.10;;
18316;SDS011;9284;52.298;21.164;2023-05-07T13:28:53;1.33;;;1.10;;
18316;SDS011;9284;52.298;21.164;2023-05-07T13:31:23;4.53;;;3.88;;
18316;SDS011;9284;52.298;21.164;2023-05-07T13:33:53;5.20;;;2.50;;
18316;SDS011;9284;52.298;21.164;2023-05-07T13:36:24;3.45;;;2.63;;
18316;SDS011;9284;52.298;21.164;2023-05-07T13:38:53;4.18;;;1.50;;
18316;SDS011;9284;52.298;21.164;2023-05-07T13:41:24;3.28;;;1.20;;
18316;SDS011;9284;52.298;21.164;2023-05-07T13:43:57;1.55;;;1.10;;
18316;SDS011;9284;52.298;21.164;2023-05-07T13:46:26;1.27;;;1.17;;
18316;SDS011;9284;52.298;21.164;2023-05-07T13:48:55;2.10;;;1.30;;
18316;SDS011;9284;52.298;21.164;2023-05-07T13:51:28;2.35;;;1.30;;
18316;SDS011;9284;52.298;21.164;2023-05-07T13:53:56;4.50;;;2.70;;
18316;SDS011;9284;52.298;21.164;2023-05-07T13:56:31;5.97;;;2.58;;
18316;SDS011;9284;52.298;21.164;2023-05-07T13:59:04;2.10;;;1.50;;
18316;SDS011;9284;52.298;21.164;2023-05-07T14:01:35;3.10;;;1.40;;
18316;SDS011;9284;52.298;21.164;2023-05-07T14:04:04;1.88;;;1.45;;
18316;SDS011;9284;52.298;21.164;2023-05-07T14:06:35;1.60;;;1.40;;
18316;SDS011;9284;52.298;21.164;2023-05-07T14:09:03;1.70;;;1.30;;
18316;SDS011;9284;52.298;21.164;2023-05-07T14:11:31;2.65;;;1.15;;
18316;SDS011;9284;52.298;21.164;2023-05-07T14:14:03;1.20;;;1.10;;
18316;SDS011;9284;52.298;21.164;2023-05-07T14:16:31;3.35;;;1.40;;
18316;SDS011;9284;52.298;21.164;2023-05-07T14:19:08;1.48;;;1.20;;
18316;SDS011;9284;52.298;21.164;2023-05-07T14:21:36;3.35;;;1.80;;
18316;SDS011;9284;52.298;21.164;2023-05-07T14:24:10;1.52;;;1.20;;
18316;SDS011;9284;52.298;21.164;2023-05-07T14:27:02;3.17;;;1.20;;
18316;SDS011;9284;52.298;21.164;2023-05-07T14:29:33;1.35;;;1.25;;
18316;SDS011;9284;52.298;21.164;2023-05-07T14:32:03;1.80;;;1.38;;
18316;SDS011;9284;52.298;21.164;2023-05-07T14:34:33;3.85;;;1.75;;
18316;SDS011;9284;52.298;21.164;2023-05-07T14:37:04;5.97;;;2.05;;
18316;SDS011;9284;52.298;21.164;2023-05-07T14:39:32;4.10;;;1.85;;
18316;SDS011;9284;52.298;21.164;2023-05-07T14:42:01;4.88;;;1.70;;
18316;SDS011;9284;52.298;21.164;2023-05-07T14:44:30;1.73;;;1.60;;
18316;SDS011;9284;52.298;21.164;2023-05-07T14:47:00;3.80;;;1.55;;
18316;SDS011;9284;52.298;21.164;2023-05-07T14:49:29;5.00;;;1.58;;
18316;SDS011;9284;52.298;21.164;2023-05-07T14:52:01;1.60;;;1.33;;
18316;SDS011;9284;52.298;21.164;2023-05-07T14:54:37;2.05;;;1.55;;
18316;SDS011;9284;52.298;21.164;2023-05-07T14:57:10;1.83;;;1.50;;
18316;SDS011;9284;52.298;21.164;2023-05-07T14:59:43;2.83;;;1.60;;
18316;SDS011;9284;52.298;21.164;2023-05-07T15:02:14;2.95;;;1.48;;
18316;SDS011;9284;52.298;21.164;2023-05-07T15:04:47;1.90;;;1.50;;
18316;SDS011;9284;52.298;21.164;2023-05-07T15:07:15;1.88;;;1.48;;
18316;SDS011;9284;52.298;21.164;2023-05-07T15:09:50;2.25;;;1.50;;
18316;SDS011;9284;52.298;21.164;2023-05-07T15:12:20;2.08;;;1.40;;
18316;SDS011;9284;52.298;21.164;2023-05-07T15:14:49;2.10;;;1.38;;
18316;SDS011;9284;52.298;21.164;2023-05-07T15:17:22;3.03;;;1.33;;
18316;SDS011;9284;52.298;21.164;2023-05-07T15:19:51;3.65;;;1.55;;